Flight Track Log - Related Links

Times and Time Zones

All times are in EDT time to prevent confusion due to time zone crossing. See the N91FR flight status page for this flight to view local times or setup timezone preferences in your user account.

Time Position Orientation Groundspeed Altitude Reporting Facility
EDT Latitude Longitude Course Direction KTS MPH feet Rate Location/Type
Wed 12:58:13 PM 42.5067 -122.7942 109° East 104 120 4,000  Level Seattle Center
Wed 12:59:00 PM 42.3296 -122.6313 105° East  Level FlightAware Approximate
Wed 12:59:14 PM 42.4967 -122.7606 112° Southeast 107 123 4,500  Level Seattle Center
Wed 01:00:00 PM 42.3219 -122.5925 105° East  Level FlightAware Approximate
Wed 01:00:15 PM 42.4722 -122.7317 139° Southeast 107 123 5,000  Level Seattle Center
Wed 01:01:00 PM 42.3135 -122.5540 109° East  Level FlightAware Approximate
Wed 01:01:16 PM 42.4581 -122.7044 125° Southeast 106 122 5,400  Level Seattle Center
Wed 01:02:00 PM 42.3040 -122.5160 109° East  Level FlightAware Approximate
Wed 01:02:17 PM 42.4389 -122.6753 132° Southeast 104 120 5,900  Level Seattle Center
Wed 01:03:00 PM 42.2945 -122.4780 109° East  Level FlightAware Approximate
Wed 01:03:18 PM 42.4178 -122.6378 127° Southeast 104 120 6,600  Level Seattle Center
Wed 01:04:19 PM 42.4014 -122.6072 126° Southeast 102 117 7,000 488 Climbing Seattle Center
Wed 01:05:21 PM 42.3850 -122.5764 126° Southeast 101 116 7,600 585 Climbing Seattle Center
Wed 01:06:22 PM 42.3683 -122.5439 125° Southeast 103 119 8,200 590 Climbing Seattle Center
Wed 01:07:23 PM 42.3519 -122.5092 123° Southeast 109 125 8,800 590 Climbing Seattle Center
Wed 01:08:24 PM 42.3361 -122.4750 122° Southeast 108 124 9,400 590 Climbing Seattle Center
Wed 01:09:25 PM 42.3200 -122.4386 121° Southeast 112 129 10,000 541 Climbing Seattle Center
Wed 01:10:26 PM 42.3050 -122.4028 120° Southeast 111 128 10,500 492 Climbing Seattle Center
Wed 01:11:27 PM 42.2908 -122.3672 118° Southeast 107 123 11,000 443 Climbing Seattle Center
Wed 01:12:28 PM 42.2783 -122.3297 114° Southeast 108 124 11,400 443 Climbing Seattle Center
Wed 01:13:29 PM 42.2933 -122.2889 64° Northeast 159 183 11,900 344 Climbing Seattle Center
Wed 01:14:30 PM 42.3286 -122.2464 42° Northeast 170 196 12,100 98 Climbing Seattle Center
Wed 01:15:31 PM 42.3706 -122.1908 44° Northeast 175 201 12,100  Level Seattle Center
Wed 01:16:32 PM 42.4061 -122.1450 44° Northeast 178 205 12,100  Level Seattle Center
Wed 01:17:33 PM 42.4417 -122.0964 45° Northeast 181 208 12,100  Level Seattle Center
Wed 01:18:34 PM 42.4242 -122.0836 152° Southeast 119 137 12,100  Level Seattle Center
Wed 01:19:36 PM 42.4069 -122.1139 232° Southwest 103 119 12,100  Level Seattle Center
Wed 01:20:37 PM 42.3889 -122.1442 231° Southwest 105 121 12,100  Level Seattle Center
Wed 01:21:38 PM 42.3706 -122.1783 234° Southwest 111 128 12,100  Level Seattle Center
Wed 01:22:39 PM 42.3478 -122.1981 213° Southwest 107 123 12,100  Level Seattle Center
Wed 01:23:40 PM 42.3219 -122.2108 200° South 99 114 12,100  Level Seattle Center
Wed 01:24:41 PM 42.2944 -122.2244 200° South 106 122 12,100  Level Seattle Center
Wed 01:25:42 PM 42.2658 -122.2375 199° South 109 125 12,100  Level Seattle Center
Wed 01:26:43 PM 42.2353 -122.2511 198° South 99 114 12,100  Level Seattle Center
Wed 01:27:44 PM 42.2081 -122.2628 198° South 101 116 12,100  Level Seattle Center
Wed 01:28:45 PM 42.1797 -122.2742 197° South 105 121 12,100  Level Seattle Center
Wed 01:29:46 PM 42.1539 -122.2869 200° South 103 119 12,100  Level Seattle Center
Wed 01:30:47 PM 42.1281 -122.2986 199° South 100 115 12,100  Level Seattle Center
Wed 01:31:48 PM 42.1019 -122.3122 201° Southwest 100 115 12,100  Level Seattle Center
Wed 01:32:49 PM 42.0750 -122.3261 201° Southwest 105 121 12,100 -49 Level Seattle Center
Wed 01:33:50 PM 42.0472 -122.3381 198° South 106 122 12,000 -393 Descending Seattle Center
Wed 01:34:51 PM 42.0183 -122.3517 199° South 109 125 11,300 -836 Descending Seattle Center
Wed 01:35:52 PM 41.9792 -122.3681 197° South 118 136 10,300 -590 Descending Seattle Center
Wed 01:36:53 PM 41.9467 -122.3811 197° South 123 142 10,100 -98 Descending Seattle Center
Wed 01:37:54 PM 41.9178 -122.3931 197° South 111 128 10,100  Level Seattle Center
Wed 01:38:56 PM 41.8894 -122.4083 202° Southwest 112 129 10,100  Level Seattle Center
Wed 01:39:57 PM 41.8592 -122.4228 200° South 115 132 10,100  Level Seattle Center
Wed 01:40:58 PM 41.8306 -122.4344 197° South 110 127 10,100 -98 Level Seattle Center
Wed 01:41:59 PM 41.8022 -122.4475 199° South 107 123 9,900 -492 Descending Seattle Center
Wed 01:43:00 PM 41.7689 -122.4644 201° Southwest 116 133 9,100 -393 Descending Seattle Center
Wed 01:44:01 PM 41.7386 -122.4758 196° South 117 135 9,100 -197 Level Seattle Center
Wed 01:45:02 PM 41.7111 -122.4806 187° South 108 124 8,700 -590 Descending Seattle Center
Wed 01:46:03 PM 41.6761 -122.4794 179° South 114 131 7,900 -885 Descending Seattle Center
Wed 01:47:04 PM 41.6319 -122.4778 178° South 125 144 6,900 -492 Descending Seattle Center
Wed 01:48:05 PM 41.5986 -122.4794 182° South 127 146 6,900 31 Level Seattle Center
Wed 01:50:00 PM 41.6505 -122.4755 North  Level FlightAware Approximate
Wed 01:57:00 PM 41.7667 -122.4667 North  Level FlightAware Approximate
Wed 01:58:00 PM 41.7814 -122.4681 North  Level Estimated
Wed 01:59:00 PM 41.7814 -122.4681 North  Level Estimated
Wed 01:59:52 PM 41.7081 -122.5097 345° North 146 168 7,300  Level Seattle Center
Wed 02:00:00 PM 41.7814 -122.4681 North  Level Estimated
Wed 02:00:53 PM 41.7342 -122.4781 42° Northeast 132 152 7,700  Level Seattle Center
Wed 02:01:00 PM 41.7814 -122.4681 North  Level Estimated
Wed 02:01:54 PM 41.7217 -122.4497 121° Southeast 119 137 8,300  Level Seattle Center
Wed 02:02:00 PM 41.7814 -122.4681 North  Level Estimated
Wed 02:02:55 PM 41.6947 -122.4492 179° South 106 122 8,800  Level Seattle Center
Wed 02:03:00 PM 41.7814 -122.4681 North  Level Estimated
Wed 02:03:56 PM 41.6822 -122.4758 238° Southwest 102 117 9,400  Level Seattle Center
Wed 02:04:00 PM 41.8141 -122.4902 North  Level Estimated
Wed 02:04:57 PM 41.7181 -122.4983 335° Northwest 132 152 10,000  Level Seattle Center
Wed 02:05:58 PM 41.7542 -122.5211 335° Northwest 139 160 10,100 -146 Climbing Seattle Center
Wed 02:07:00 PM 41.7994 -122.5456 338° Northwest 155 178 9,700 -49 Descending Seattle Center
Wed 02:08:01 PM 41.8397 -122.5706 335° Northwest 161 185 10,000 148 Climbing Seattle Center
Wed 02:09:02 PM 41.8792 -122.5956 335° Northwest 159 183 10,000  Level Seattle Center
Wed 02:10:03 PM 41.9197 -122.6186 337° Northwest 157 181 10,000  Level Seattle Center
Wed 02:11:04 PM 41.9603 -122.6422 337° Northwest 159 183 10,000 -98 Level Seattle Center
Wed 02:12:05 PM 42.0092 -122.6725 335° Northwest 161 185 9,800 -344 Descending Seattle Center
Wed 02:13:06 PM 42.0517 -122.6975 336° Northwest 166 191 9,300 -295 Descending Seattle Center
Wed 02:14:07 PM 42.0883 -122.7211 334° Northwest 151 174 9,200 -197 Descending Seattle Center
Wed 02:15:08 PM 42.1250 -122.7403 339° North 142 163 8,900 -443 Descending Seattle Center
Wed 02:16:09 PM 42.1625 -122.7586 340° North 143 165 8,300 -590 Descending Seattle Center
Wed 02:17:10 PM 42.1933 -122.7767 337° Northwest 122 140 7,700 -639 Descending Seattle Center
Wed 02:18:11 PM 42.2281 -122.7956 338° Northwest 133 153 7,000 -984 Descending Seattle Center
Wed 02:19:12 PM 42.2589 -122.8114 339° North 123 142 5,700 -1,180 Descending Seattle Center
Wed 02:20:13 PM 42.2886 -122.8278 338° Northwest 116 133 4,600 -1,122 Descending Seattle Center
Wed 02:21:15 PM 42.3178 -122.8436 338° Northwest 105 121 3,400 -1,171 Descending Seattle Center
Wed 02:22:16 PM 42.3419 -122.8561 339° North 96 110 2,200 -1,033 Descending Seattle Center
Wed 02:23:17 PM 42.3678 -122.8686 340° North 93 107 1,300 -443 Descending Seattle Center
Wed 02:24:18 PM 42.3794 -122.8731 344° North 58 67 1,300  Level Seattle Center
Wed 02:26:00 PM 42.3742 -122.8735 157° South  Level Estimated

Login

Don't have an account? Register now (free) for customized features, flight alerts, and more!